createdAt,value
2019-02-27T00:02:57.680Z,76.34
2019-02-27T00:06:00.887Z,76.54
2019-02-27T00:09:04.114Z,76.64
2019-02-27T00:12:07.240Z,76.16
2019-02-27T00:15:10.768Z,77.47
2019-02-27T00:18:14.072Z,77.11
2019-02-27T00:21:17.251Z,77.28
2019-02-27T00:24:20.568Z,77.63
2019-02-27T00:27:23.863Z,76.81
2019-02-27T00:30:27.067Z,77.31
2019-02-27T00:33:30.335Z,77.69
2019-02-27T00:36:33.459Z,76.82
2019-02-27T00:39:36.616Z,77.22
2019-02-27T00:42:39.717Z,77.28
2019-02-27T00:45:42.915Z,76.97
2019-02-27T00:48:46.022Z,77.37
2019-02-27T00:51:49.226Z,77.86
2019-02-27T00:54:52.313Z,77.76
2019-02-27T00:57:55.495Z,78.05
2019-02-27T01:00:58.688Z,78.62
2019-02-27T01:04:02.517Z,78.86
2019-02-27T01:07:04.958Z,79.16
2019-02-27T01:10:12.008Z,79.10
2019-02-27T01:13:11.758Z,78.97
2019-02-27T01:16:16.957Z,78.70
2019-02-27T01:19:18.047Z,78.81
2019-02-27T01:22:21.245Z,78.22
2019-02-27T01:25:24.431Z,78.80
2019-02-27T01:28:27.740Z,78.79
2019-02-27T01:31:30.942Z,79.15
2019-02-27T01:34:34.037Z,79.66
2019-02-27T01:37:37.224Z,79.81
2019-02-27T01:40:40.440Z,80.46
2019-02-27T01:43:43.620Z,79.53
2019-02-27T01:46:46.794Z,79.54
2019-02-27T01:49:50.011Z,79.62
2019-02-27T01:52:53.209Z,79.26
2019-02-27T01:55:56.947Z,80.57
2019-02-27T01:58:59.692Z,80.55
2019-02-27T02:02:03.461Z,80.63
2019-02-27T02:05:06.187Z,79.96
2019-02-27T02:08:13.459Z,80.08
2019-02-27T02:11:12.567Z,79.14
2019-02-27T02:14:25.583Z,79.51
2019-02-27T02:19:37.356Z,79.40
2019-02-27T02:23:26.107Z,79.90
2019-02-27T02:26:57.054Z,80.35
2019-02-27T02:32:21.389Z,80.23
2019-02-27T02:35:41.531Z,80.87
2019-02-27T02:38:58.933Z,81.39
2019-02-27T02:42:11.685Z,82.19
2019-02-27T02:45:23.267Z,82.35
2019-02-27T02:48:38.243Z,82.16
2019-02-27T02:51:49.686Z,81.64
2019-02-27T02:55:12.718Z,82.14
2019-02-27T02:58:19.840Z,83.45
2019-02-27T03:01:40.533Z,83.10
2019-02-27T03:05:58.537Z,82.59
2019-02-27T03:09:10.652Z,82.47
2019-02-27T03:12:58.940Z,80.78
2019-02-27T03:16:13.693Z,81.28
2019-02-27T03:22:04.557Z,81.38
2019-02-27T03:25:19.600Z,82.04
2019-02-27T03:28:40.620Z,81.66
2019-02-27T03:31:57.823Z,81.55
2019-02-27T03:35:06.705Z,81.84
2019-02-27T03:38:24.115Z,80.33
2019-02-27T03:41:38.659Z,79.99
2019-02-27T03:44:55.792Z,80.57
2019-02-27T03:48:03.578Z,80.99
2019-02-27T03:53:19.956Z,80.66
2019-02-27T03:56:43.543Z,81.23
2019-02-27T04:00:02.236Z,80.94
2019-02-27T04:03:18.182Z,81.06
2019-02-27T04:06:30.523Z,80.70
2019-02-27T04:09:33.825Z,80.80
2019-02-27T04:12:37.001Z,80.16
2019-02-27T04:15:40.121Z,79.67
2019-02-27T04:18:43.292Z,80.25
2019-02-27T04:21:46.499Z,81.35
2019-02-27T04:24:49.709Z,82.00
2019-02-27T04:27:55.665Z,81.70
2019-02-27T04:30:56.016Z,81.69
2019-02-27T04:34:00.250Z,81.36
2019-02-27T04:37:02.260Z,81.14
2019-02-27T04:40:05.658Z,81.02
2019-02-27T04:43:08.862Z,81.22
2019-02-27T04:46:12.042Z,81.22
2019-02-27T04:49:15.267Z,81.52
2019-02-27T04:52:21.975Z,80.92
2019-02-27T04:55:22.851Z,81.82
2019-02-27T04:58:26.059Z,82.66
2019-02-27T05:01:29.347Z,82.82
2019-02-27T05:04:35.275Z,82.66
2019-02-27T05:07:35.635Z,82.92
2019-02-27T05:10:40.611Z,83.10
2019-02-27T05:13:42.027Z,83.23
2019-02-27T05:16:47.182Z,83.15
2019-02-27T05:19:48.326Z,83.48
2019-02-27T05:22:51.616Z,83.20
2019-02-27T05:25:54.935Z,81.61
2019-02-27T05:28:58.251Z,81.11
2019-02-27T05:32:01.385Z,80.68
2019-02-27T05:35:04.864Z,81.73
2019-02-27T05:38:08.011Z,81.71
2019-02-27T05:41:11.191Z,82.23
2019-02-27T05:44:14.373Z,82.21
2019-02-27T05:47:17.473Z,82.42
2019-02-27T05:50:20.656Z,82.39
2019-02-27T05:53:23.868Z,82.02
2019-02-27T05:56:27.063Z,81.91
2019-02-27T05:59:30.348Z,82.89
2019-02-27T06:02:33.544Z,83.34
2019-02-27T06:05:36.856Z,83.63
2019-02-27T06:08:40.021Z,83.93
2019-02-27T06:11:43.143Z,83.11
2019-02-27T06:14:46.314Z,82.85
2019-02-27T06:17:49.874Z,83.12
2019-02-27T06:20:52.920Z,83.42
2019-02-27T06:23:56.017Z,83.33
2019-02-27T06:26:59.200Z,83.39
2019-02-27T06:30:02.399Z,83.06
2019-02-27T06:33:05.719Z,83.62
2019-02-27T06:36:08.898Z,84.24
2019-02-27T06:39:12.091Z,84.41
2019-02-27T06:42:15.352Z,84.36
2019-02-27T06:45:18.491Z,83.73
2019-02-27T06:48:21.676Z,83.46
2019-02-27T06:51:24.862Z,82.90
2019-02-27T06:54:28.091Z,82.88
2019-02-27T06:57:31.273Z,83.03
2019-02-27T07:00:36.669Z,83.58
2019-02-27T07:03:37.770Z,83.62
2019-02-27T07:06:41.211Z,83.11
2019-02-27T07:09:45.811Z,82.02
2019-02-27T07:12:48.664Z,82.62
2019-02-27T07:15:51.859Z,82.43
2019-02-27T07:18:55.141Z,81.80
2019-02-27T07:21:58.660Z,81.55
2019-02-27T07:25:06.418Z,81.64
2019-02-27T07:28:08.472Z,81.47
2019-02-27T07:31:08.427Z,80.99
2019-02-27T07:34:14.264Z,81.28
2019-02-27T07:37:14.820Z,80.74
2019-02-27T07:40:18.016Z,80.12
2019-02-27T07:43:21.101Z,79.88
2019-02-27T07:46:24.304Z,78.91
2019-02-27T07:49:28.371Z,78.80
2019-02-27T07:52:32.620Z,78.05
2019-02-27T07:55:33.790Z,77.94
2019-02-27T07:58:36.988Z,77.99
2019-02-27T08:01:43.678Z,77.22
2019-02-27T08:04:43.266Z,76.87
2019-02-27T08:07:49.065Z,76.06
2019-02-27T08:10:49.762Z,75.53
2019-02-27T08:13:52.960Z,75.59
2019-02-27T08:16:57.934Z,75.41
2019-02-27T08:19:59.326Z,74.33
2019-02-27T08:23:02.567Z,73.34
2019-02-27T08:26:05.847Z,71.94
2019-02-27T08:29:09.029Z,71.45
2019-02-27T08:32:12.247Z,71.08
2019-02-27T08:35:16.705Z,71.10
2019-02-27T08:38:18.616Z,69.63
2019-02-27T08:41:22.023Z,69.24
2019-02-27T08:44:25.199Z,68.01
2019-02-27T08:47:28.587Z,67.08
2019-02-27T08:50:32.358Z,65.57
2019-02-27T08:53:34.895Z,61.58
2019-02-27T08:56:38.091Z,60.48
2019-02-27T08:59:41.279Z,59.27
2019-02-27T09:02:44.495Z,59.34
2019-02-27T09:05:47.946Z,58.64
2019-02-27T09:08:51.085Z,58.71
2019-02-27T09:11:54.359Z,59.17
2019-02-27T09:14:57.500Z,58.36
2019-02-27T09:18:01.729Z,58.17
2019-02-27T09:21:03.844Z,56.95
2019-02-27T09:24:07.081Z,56.04
2019-02-27T09:27:10.335Z,56.11
2019-02-27T09:30:14.540Z,55.44
2019-02-27T09:33:20.017Z,55.12
2019-02-27T09:36:20.752Z,55.51
2019-02-27T09:39:24.051Z,54.31
2019-02-27T09:42:27.247Z,54.68
2019-02-27T09:45:31.484Z,55.11
2019-02-27T09:48:34.964Z,55.08
2019-02-27T09:51:38.143Z,54.59
2019-02-27T09:54:41.362Z,54.00
2019-02-27T09:57:44.488Z,54.00
2019-02-27T10:00:50.912Z,54.27
2019-02-27T10:03:55.335Z,51.46
2019-02-27T10:06:57.389Z,50.66
2019-02-27T10:10:00.668Z,50.19
2019-02-27T10:13:04.117Z,49.33
2019-02-27T10:16:06.958Z,49.23
2019-02-27T10:19:10.098Z,49.94
2019-02-27T10:22:13.263Z,50.63
2019-02-27T10:25:16.476Z,49.71
2019-02-27T10:28:19.677Z,48.68
2019-02-27T10:31:22.858Z,47.88
2019-02-27T10:34:26.038Z,48.27
2019-02-27T10:37:30.316Z,47.09
2019-02-27T10:40:33.559Z,47.41
2019-02-27T10:43:36.791Z,47.04
2019-02-27T10:46:39.967Z,47.17
2019-02-27T10:49:43.155Z,47.20
2019-02-27T10:52:46.348Z,47.45
2019-02-27T10:55:50.042Z,47.00
2019-02-27T10:58:52.743Z,46.92
2019-02-27T11:01:55.949Z,46.59
2019-02-27T11:04:59.844Z,44.39
2019-02-27T11:08:03.063Z,45.55
2019-02-27T11:11:06.265Z,43.79
2019-02-27T11:14:09.417Z,44.12
2019-02-27T11:17:12.524Z,44.20
2019-02-27T11:20:20.425Z,43.31
2019-02-27T11:23:18.911Z,44.49
2019-02-27T11:26:22.113Z,42.42
2019-02-27T11:29:25.402Z,40.52
2019-02-27T11:32:28.684Z,41.70
2019-02-27T11:35:32.031Z,41.32
2019-02-27T11:38:35.136Z,40.54
2019-02-27T11:41:38.237Z,40.36
2019-02-27T11:44:41.392Z,40.42
2019-02-27T11:47:47.757Z,38.93
2019-02-27T11:50:47.687Z,39.32
2019-02-27T11:53:50.852Z,38.20
2019-02-27T11:56:56.283Z,38.53
2019-02-27T11:59:57.373Z,35.88
2019-02-27T12:03:00.721Z,35.84
2019-02-27T12:06:05.331Z,35.61
2019-02-27T12:09:07.346Z,35.48
2019-02-27T12:12:10.630Z,36.52
2019-02-27T12:15:14.803Z,36.46
2019-02-27T12:18:17.966Z,34.65
2019-02-27T12:21:21.137Z,34.11
2019-02-27T12:24:24.532Z,35.04
2019-02-27T12:27:47.809Z,33.82
2019-02-27T12:30:31.261Z,34.71
2019-02-27T12:33:34.711Z,34.24
2019-02-27T12:36:37.841Z,33.80
2019-02-27T12:39:41.011Z,34.21
2019-02-27T12:42:44.231Z,35.09
2019-02-27T12:45:47.399Z,33.53
2019-02-27T12:48:50.662Z,33.37
2019-02-27T12:51:53.759Z,32.88
2019-02-27T12:54:59.168Z,31.67
2019-02-27T12:58:00.084Z,31.66
2019-02-27T13:01:03.272Z,30.63
2019-02-27T13:04:06.472Z,30.29
2019-02-27T13:07:10.760Z,30.47
2019-02-27T13:10:15.367Z,30.93
2019-02-27T13:13:18.531Z,30.61
2019-02-27T13:16:21.715Z,30.75
2019-02-27T13:19:24.891Z,29.75
2019-02-27T13:22:29.191Z,28.80
2019-02-27T13:25:31.351Z,28.66
2019-02-27T13:28:34.487Z,28.84
2019-02-27T13:31:37.693Z,28.51
2019-02-27T13:34:40.971Z,27.17
2019-02-27T13:37:44.762Z,27.12
2019-02-27T13:40:47.364Z,27.58
2019-02-27T13:43:50.663Z,28.18
2019-02-27T13:46:54.493Z,27.12
2019-02-27T13:49:57.047Z,24.62
2019-02-27T13:53:00.267Z,24.20
2019-02-27T13:56:03.434Z,25.10
2019-02-27T13:59:07.445Z,24.33
2019-02-27T14:02:11.284Z,22.17
2019-02-27T14:05:12.820Z,22.85
2019-02-27T14:08:16.111Z,22.58
2019-02-27T14:11:19.286Z,21.37
2019-02-27T14:14:22.399Z,21.31
2019-02-27T14:17:25.597Z,21.96
2019-02-27T14:20:29.222Z,23.08
2019-02-27T14:23:31.997Z,22.14
2019-02-27T14:26:35.311Z,22.53
2019-02-27T14:29:38.566Z,22.65
2019-02-27T14:32:41.682Z,22.83
2019-02-27T14:35:44.859Z,22.06
2019-02-27T14:38:48.048Z,22.49
2019-02-27T14:41:51.404Z,22.96
2019-02-27T14:44:54.443Z,23.19
2019-02-27T14:47:59.551Z,22.53
2019-02-27T14:51:00.728Z,22.42
2019-02-27T14:54:03.857Z,22.32
2019-02-27T14:57:07.024Z,22.87
2019-02-27T15:00:14.121Z,22.45
2019-02-27T15:03:17.312Z,23.44
2019-02-27T15:06:21.423Z,23.32
2019-02-27T15:09:24.603Z,24.51
2019-02-27T15:12:27.700Z,24.02
2019-02-27T15:15:31.029Z,23.62
2019-02-27T15:18:34.389Z,24.64
2019-02-27T15:21:37.499Z,24.00
2019-02-27T15:24:40.727Z,24.79
2019-02-27T15:27:43.923Z,25.90
2019-02-27T15:30:47.378Z,25.70
2019-02-27T15:33:50.194Z,26.62
2019-02-27T15:36:53.385Z,26.58
2019-02-27T15:39:56.562Z,26.11
2019-02-27T15:42:59.797Z,26.99
2019-02-27T15:46:03.014Z,26.57
2019-02-27T15:49:06.191Z,25.69
2019-02-27T15:52:09.340Z,26.58
2019-02-27T15:55:12.920Z,26.25
2019-02-27T15:58:16.026Z,26.91
2019-02-27T16:01:19.143Z,27.23
2019-02-27T16:04:22.320Z,27.38
2019-02-27T16:07:25.628Z,27.59
2019-02-27T16:10:28.884Z,28.61
2019-02-27T16:13:34.676Z,27.60
2019-02-27T16:16:35.304Z,28.61
2019-02-27T16:19:38.592Z,29.93
2019-02-27T16:22:41.716Z,30.23
2019-02-27T16:25:44.916Z,30.36
2019-02-27T16:28:48.978Z,30.92
2019-02-27T16:31:51.297Z,30.45
2019-02-27T16:34:54.469Z,30.83
2019-02-27T16:37:58.017Z,30.88
2019-02-27T16:41:00.864Z,31.19
2019-02-27T16:44:04.075Z,32.11
2019-02-27T16:47:07.252Z,33.28
2019-02-27T16:50:13.519Z,33.96
2019-02-27T16:53:19.271Z,36.22
2019-02-27T16:56:19.812Z,34.20
2019-02-27T16:59:23.019Z,32.98
2019-02-27T17:02:26.195Z,33.02
2019-02-27T17:05:31.705Z,34.15
2019-02-27T17:08:33.021Z,36.14
2019-02-27T17:11:35.775Z,36.59
2019-02-27T17:14:39.426Z,37.98
2019-02-27T17:17:42.079Z,37.85
2019-02-27T17:20:46.590Z,37.76
2019-02-27T17:23:48.493Z,36.27
2019-02-27T17:26:51.699Z,37.45
2019-02-27T17:29:59.629Z,38.17
2019-02-27T17:32:58.046Z,38.93
2019-02-27T17:36:01.269Z,39.58
2019-02-27T17:39:05.503Z,39.34
2019-02-27T17:42:08.707Z,40.82
2019-02-27T17:45:13.848Z,41.28
2019-02-27T17:48:16.891Z,41.87
2019-02-27T17:51:20.104Z,43.15
2019-02-27T17:54:23.287Z,43.98
2019-02-27T17:57:26.481Z,43.58
2019-02-27T18:00:33.791Z,44.63
2019-02-27T18:03:41.518Z,45.05
2019-02-27T18:06:40.360Z,44.66
2019-02-27T18:09:43.654Z,44.64
2019-02-27T18:12:46.932Z,44.88
2019-02-27T18:15:53.156Z,46.33
2019-02-27T18:18:53.267Z,47.22
2019-02-27T18:21:56.443Z,48.29
2019-02-27T18:24:59.779Z,48.33
2019-02-27T18:28:02.920Z,47.64
2019-02-27T18:31:06.132Z,47.96
2019-02-27T18:34:09.362Z,48.93
2019-02-27T18:37:14.497Z,49.07
2019-02-27T18:40:15.832Z,48.19
2019-02-27T18:43:19.112Z,48.71
2019-02-27T18:46:24.714Z,49.67
2019-02-27T18:49:25.587Z,49.17
2019-02-27T18:52:28.770Z,50.25
2019-02-27T18:55:32.116Z,49.52
2019-02-27T18:58:35.371Z,51.29
2019-02-27T19:01:41.321Z,50.76
2019-02-27T19:04:41.686Z,51.23
2019-02-27T19:07:44.921Z,52.17
2019-02-27T19:10:48.076Z,51.96
2019-02-27T19:13:51.260Z,51.72
2019-02-27T19:16:54.923Z,52.67
2019-02-27T19:19:57.558Z,52.55
2019-02-27T19:23:00.751Z,51.77
2019-02-27T19:26:06.428Z,51.76
2019-02-27T19:29:07.036Z,52.49
2019-02-27T19:32:10.324Z,52.46
2019-02-27T19:35:13.532Z,51.17
2019-02-27T19:38:16.841Z,52.54
2019-02-27T19:41:19.995Z,52.54
2019-02-27T19:44:23.207Z,52.76
2019-02-27T19:47:26.400Z,53.08
2019-02-27T19:50:29.710Z,53.44
2019-02-27T19:53:32.904Z,51.53
2019-02-27T19:56:36.264Z,51.87
2019-02-27T19:59:39.607Z,52.09
2019-02-27T20:02:42.787Z,52.74
2019-02-27T20:05:46.007Z,52.02
2019-02-27T20:08:49.149Z,51.15
2019-02-27T20:11:52.295Z,51.00
2019-02-27T20:14:55.495Z,50.98
2019-02-27T20:17:58.764Z,50.96
2019-02-27T20:21:02.316Z,49.86
2019-02-27T20:24:14.226Z,50.28
2019-02-27T20:27:08.632Z,49.87
2019-02-27T20:30:15.338Z,50.14
2019-02-27T20:33:18.550Z,50.09
2019-02-27T20:36:21.736Z,49.85
2019-02-27T20:39:25.947Z,50.07
2019-02-27T20:42:29.112Z,50.08
2019-02-27T20:45:32.363Z,49.77
2019-02-27T20:48:39.532Z,50.55
2019-02-27T20:51:39.982Z,51.36
2019-02-27T20:54:43.201Z,51.83
2019-02-27T20:57:46.307Z,51.69
2019-02-27T21:00:49.395Z,52.71
2019-02-27T21:03:52.491Z,51.95
2019-02-27T21:06:55.694Z,53.08
2019-02-27T21:09:59.006Z,53.98
2019-02-27T21:13:02.308Z,53.53
2019-02-27T21:16:09.337Z,54.75
2019-02-27T21:19:08.731Z,55.13
2019-02-27T21:22:11.893Z,55.37
2019-02-27T21:25:15.734Z,55.42
2019-02-27T21:28:21.179Z,55.80
2019-02-27T21:31:26.613Z,56.29
2019-02-27T21:34:24.843Z,56.76
2019-02-27T21:37:28.049Z,56.72
2019-02-27T21:40:33.395Z,56.06
2019-02-27T21:43:34.459Z,54.84
2019-02-27T21:46:37.571Z,54.69
2019-02-27T21:49:40.719Z,54.63
2019-02-27T21:52:43.927Z,53.94
2019-02-27T21:55:47.127Z,54.11
2019-02-27T21:58:50.458Z,54.72
2019-02-27T22:01:56.305Z,54.69
2019-02-27T22:04:56.823Z,55.62
2019-02-27T22:08:00.102Z,55.26
2019-02-27T22:11:03.409Z,56.19
2019-02-27T22:14:06.584Z,56.48
2019-02-27T22:17:09.690Z,55.60
2019-02-27T22:20:12.930Z,57.16
2019-02-27T22:23:16.091Z,57.03
2019-02-27T22:26:19.267Z,57.13
2019-02-27T22:29:25.258Z,57.73
2019-02-27T22:32:25.656Z,57.59
2019-02-27T22:35:30.359Z,57.54
2019-02-27T22:38:32.022Z,57.98
2019-02-27T22:41:35.163Z,57.83
2019-02-27T22:44:38.312Z,57.90
2019-02-27T22:47:41.460Z,58.17
2019-02-27T22:50:44.531Z,58.76
2019-02-27T22:53:47.725Z,58.54
2019-02-27T22:56:51.720Z,58.73
2019-02-27T22:59:54.085Z,58.99
2019-02-27T23:02:57.203Z,59.25
2019-02-27T23:06:00.387Z,58.62
2019-02-27T23:09:04.583Z,59.46
2019-02-27T23:12:08.538Z,59.34
2019-02-27T23:15:10.890Z,59.64
2019-02-27T23:18:14.099Z,60.12
2019-02-27T23:21:17.295Z,60.21
2019-02-27T23:24:20.516Z,60.47
2019-02-27T23:27:25.957Z,60.39
2019-02-27T23:30:26.858Z,60.71
2019-02-27T23:33:35.867Z,60.56
2019-02-27T23:36:33.967Z,60.94
2019-02-27T23:39:39.605Z,61.37
2019-02-27T23:42:40.159Z,62.13
2019-02-27T23:45:44.500Z,62.04
2019-02-27T23:48:46.649Z,61.79
2019-02-27T23:51:49.960Z,62.32
2019-02-27T23:54:53.136Z,62.28
2019-02-27T23:57:57.765Z,63.16
